sensor_id;sensor_type;location;lat;lon;timestamp;P1;durP1;ratioP1;P2;durP2;ratioP2
4074;SDS011;2052;53.522;9.806;2023-11-21T00:00:00;33.23;;;12.27;;
4074;SDS011;2052;53.522;9.806;2023-11-21T00:02:26;38.13;;;14.00;;
4074;SDS011;2052;53.522;9.806;2023-11-21T00:04:53;36.63;;;12.67;;
4074;SDS011;2052;53.522;9.806;2023-11-21T00:07:19;32.20;;;12.97;;
4074;SDS011;2052;53.522;9.806;2023-11-21T00:09:48;37.27;;;16.03;;
4074;SDS011;2052;53.522;9.806;2023-11-21T00:12:14;39.63;;;12.93;;
4074;SDS011;2052;53.522;9.806;2023-11-21T00:14:42;35.00;;;14.10;;
4074;SDS011;2052;53.522;9.806;2023-11-21T00:17:08;37.73;;;14.97;;
4074;SDS011;2052;53.522;9.806;2023-11-21T00:19:36;37.73;;;13.03;;
4074;SDS011;2052;53.522;9.806;2023-11-21T00:22:02;38.10;;;13.93;;
4074;SDS011;2052;53.522;9.806;2023-11-21T00:24:29;33.80;;;13.47;;
4074;SDS011;2052;53.522;9.806;2023-11-21T00:26:58;32.03;;;13.80;;
4074;SDS011;2052;53.522;9.806;2023-11-21T00:29:25;28.07;;;11.80;;
4074;SDS011;2052;53.522;9.806;2023-11-21T00:31:51;24.17;;;10.80;;
4074;SDS011;2052;53.522;9.806;2023-11-21T00:34:18;26.03;;;11.40;;
4074;SDS011;2052;53.522;9.806;2023-11-21T00:36:45;23.40;;;9.93;;
4074;SDS011;2052;53.522;9.806;2023-11-21T00:39:12;20.93;;;10.87;;
4074;SDS011;2052;53.522;9.806;2023-11-21T00:41:39;19.77;;;9.70;;
4074;SDS011;2052;53.522;9.806;2023-11-21T00:44:12;16.80;;;9.27;;
4074;SDS011;2052;53.522;9.806;2023-11-21T00:46:38;18.63;;;9.10;;
4074;SDS011;2052;53.522;9.806;2023-11-21T00:49:05;22.03;;;10.60;;
4074;SDS011;2052;53.522;9.806;2023-11-21T00:51:31;18.10;;;9.10;;
4074;SDS011;2052;53.522;9.806;2023-11-21T00:53:58;21.70;;;9.83;;
4074;SDS011;2052;53.522;9.806;2023-11-21T00:56:24;24.10;;;11.50;;
4074;SDS011;2052;53.522;9.806;2023-11-21T00:58:51;27.03;;;12.17;;
4074;SDS011;2052;53.522;9.806;2023-11-21T01:01:20;28.33;;;12.73;;
4074;SDS011;2052;53.522;9.806;2023-11-21T01:03:48;20.97;;;9.80;;
4074;SDS011;2052;53.522;9.806;2023-11-21T01:06:14;23.80;;;9.70;;
4074;SDS011;2052;53.522;9.806;2023-11-21T01:08:41;17.87;;;10.03;;
4074;SDS011;2052;53.522;9.806;2023-11-21T01:11:09;21.70;;;10.50;;
4074;SDS011;2052;53.522;9.806;2023-11-21T01:13:37;20.97;;;10.23;;
4074;SDS011;2052;53.522;9.806;2023-11-21T01:16:04;23.17;;;10.03;;
4074;SDS011;2052;53.522;9.806;2023-11-21T01:18:32;25.53;;;9.33;;
4074;SDS011;2052;53.522;9.806;2023-11-21T01:21:00;26.07;;;11.23;;
4074;SDS011;2052;53.522;9.806;2023-11-21T01:23:26;25.47;;;11.10;;
4074;SDS011;2052;53.522;9.806;2023-11-21T01:25:55;24.37;;;11.53;;
4074;SDS011;2052;53.522;9.806;2023-11-21T01:28:22;29.43;;;12.30;;
4074;SDS011;2052;53.522;9.806;2023-11-21T01:30:49;25.13;;;11.60;;
4074;SDS011;2052;53.522;9.806;2023-11-21T01:33:15;25.20;;;11.13;;
4074;SDS011;2052;53.522;9.806;2023-11-21T01:35:43;28.83;;;10.80;;
4074;SDS011;2052;53.522;9.806;2023-11-21T01:38:11;25.33;;;12.20;;
4074;SDS011;2052;53.522;9.806;2023-11-21T01:40:38;28.00;;;11.90;;
4074;SDS011;2052;53.522;9.806;2023-11-21T01:43:05;31.37;;;12.63;;
4074;SDS011;2052;53.522;9.806;2023-11-21T01:45:33;31.40;;;13.20;;
4074;SDS011;2052;53.522;9.806;2023-11-21T01:48:00;27.50;;;13.40;;
4074;SDS011;2052;53.522;9.806;2023-11-21T01:50:27;30.63;;;11.90;;
4074;SDS011;2052;53.522;9.806;2023-11-21T01:52:55;30.33;;;14.57;;
4074;SDS011;2052;53.522;9.806;2023-11-21T01:55:22;28.77;;;11.53;;
4074;SDS011;2052;53.522;9.806;2023-11-21T01:57:48;29.47;;;13.30;;
4074;SDS011;2052;53.522;9.806;2023-11-21T02:00:16;33.83;;;14.93;;
4074;SDS011;2052;53.522;9.806;2023-11-21T02:02:44;30.77;;;13.50;;
4074;SDS011;2052;53.522;9.806;2023-11-21T02:05:11;30.23;;;13.40;;
4074;SDS011;2052;53.522;9.806;2023-11-21T02:07:38;27.53;;;11.93;;
4074;SDS011;2052;53.522;9.806;2023-11-21T02:10:07;25.77;;;13.03;;
4074;SDS011;2052;53.522;9.806;2023-11-21T02:12:34;25.27;;;12.53;;
4074;SDS011;2052;53.522;9.806;2023-11-21T02:15:01;25.90;;;11.73;;
4074;SDS011;2052;53.522;9.806;2023-11-21T02:17:30;22.57;;;11.53;;
4074;SDS011;2052;53.522;9.806;2023-11-21T02:19:57;23.63;;;12.03;;
4074;SDS011;2052;53.522;9.806;2023-11-21T02:22:25;20.07;;;10.70;;
4074;SDS011;2052;53.522;9.806;2023-11-21T02:24:54;23.43;;;9.50;;
4074;SDS011;2052;53.522;9.806;2023-11-21T02:27:20;18.87;;;9.73;;
4074;SDS011;2052;53.522;9.806;2023-11-21T02:29:48;21.13;;;9.63;;
4074;SDS011;2052;53.522;9.806;2023-11-21T02:32:15;16.63;;;9.87;;
4074;SDS011;2052;53.522;9.806;2023-11-21T02:34:44;14.13;;;7.20;;
4074;SDS011;2052;53.522;9.806;2023-11-21T02:37:10;15.57;;;8.20;;
4074;SDS011;2052;53.522;9.806;2023-11-21T02:39:37;13.33;;;7.40;;
4074;SDS011;2052;53.522;9.806;2023-11-21T02:42:05;10.37;;;6.80;;
4074;SDS011;2052;53.522;9.806;2023-11-21T02:44:32;14.00;;;7.10;;
4074;SDS011;2052;53.522;9.806;2023-11-21T02:46:58;14.90;;;7.47;;
4074;SDS011;2052;53.522;9.806;2023-11-21T02:49:25;13.63;;;6.90;;
4074;SDS011;2052;53.522;9.806;2023-11-21T02:51:53;11.77;;;6.73;;
4074;SDS011;2052;53.522;9.806;2023-11-21T02:54:20;13.60;;;6.90;;
4074;SDS011;2052;53.522;9.806;2023-11-21T02:56:47;12.23;;;7.10;;
4074;SDS011;2052;53.522;9.806;2023-11-21T02:59:16;11.30;;;6.70;;
4074;SDS011;2052;53.522;9.806;2023-11-21T03:01:43;12.50;;;5.77;;
4074;SDS011;2052;53.522;9.806;2023-11-21T03:04:10;12.43;;;6.37;;
4074;SDS011;2052;53.522;9.806;2023-11-21T03:06:40;11.33;;;6.50;;
4074;SDS011;2052;53.522;9.806;2023-11-21T03:09:07;7.53;;;4.80;;
4074;SDS011;2052;53.522;9.806;2023-11-21T03:11:34;11.33;;;5.87;;
4074;SDS011;2052;53.522;9.806;2023-11-21T03:14:00;8.67;;;5.50;;
4074;SDS011;2052;53.522;9.806;2023-11-21T03:16:28;10.87;;;6.20;;
4074;SDS011;2052;53.522;9.806;2023-11-21T03:18:56;7.23;;;5.10;;
4074;SDS011;2052;53.522;9.806;2023-11-21T03:21:23;11.53;;;6.27;;
4074;SDS011;2052;53.522;9.806;2023-11-21T03:23:51;10.37;;;5.67;;
4074;SDS011;2052;53.522;9.806;2023-11-21T03:26:17;14.07;;;6.57;;
4074;SDS011;2052;53.522;9.806;2023-11-21T03:28:44;12.50;;;6.10;;
4074;SDS011;2052;53.522;9.806;2023-11-21T03:31:11;14.87;;;6.60;;
4074;SDS011;2052;53.522;9.806;2023-11-21T03:33:39;13.40;;;6.73;;
4074;SDS011;2052;53.522;9.806;2023-11-21T03:36:06;10.40;;;6.33;;
4074;SDS011;2052;53.522;9.806;2023-11-21T03:38:34;14.70;;;7.53;;
4074;SDS011;2052;53.522;9.806;2023-11-21T03:41:02;12.67;;;7.37;;
4074;SDS011;2052;53.522;9.806;2023-11-21T03:43:29;13.63;;;6.80;;
4074;SDS011;2052;53.522;9.806;2023-11-21T03:45:56;13.97;;;7.33;;
4074;SDS011;2052;53.522;9.806;2023-11-21T03:48:22;19.17;;;7.70;;
4074;SDS011;2052;53.522;9.806;2023-11-21T03:50:50;17.00;;;7.90;;
4074;SDS011;2052;53.522;9.806;2023-11-21T03:53:17;14.93;;;8.23;;
4074;SDS011;2052;53.522;9.806;2023-11-21T03:55:43;11.70;;;7.17;;
4074;SDS011;2052;53.522;9.806;2023-11-21T03:58:10;16.43;;;7.90;;
4074;SDS011;2052;53.522;9.806;2023-11-21T04:00:36;13.40;;;7.30;;
4074;SDS011;2052;53.522;9.806;2023-11-21T04:03:03;13.77;;;7.50;;
4074;SDS011;2052;53.522;9.806;2023-11-21T04:05:30;14.83;;;7.47;;
4074;SDS011;2052;53.522;9.806;2023-11-21T04:07:57;13.20;;;7.97;;
4074;SDS011;2052;53.522;9.806;2023-11-21T04:10:24;13.20;;;6.90;;
4074;SDS011;2052;53.522;9.806;2023-11-21T04:12:50;13.90;;;8.10;;
4074;SDS011;2052;53.522;9.806;2023-11-21T04:15:17;16.40;;;7.80;;
4074;SDS011;2052;53.522;9.806;2023-11-21T04:17:44;16.50;;;8.30;;
4074;SDS011;2052;53.522;9.806;2023-11-21T04:20:10;17.57;;;8.13;;
4074;SDS011;2052;53.522;9.806;2023-11-21T04:22:37;13.50;;;7.93;;
4074;SDS011;2052;53.522;9.806;2023-11-21T04:25:09;19.37;;;8.30;;
4074;SDS011;2052;53.522;9.806;2023-11-21T04:27:36;11.67;;;7.60;;
4074;SDS011;2052;53.522;9.806;2023-11-21T04:30:03;14.70;;;8.33;;
4074;SDS011;2052;53.522;9.806;2023-11-21T04:32:30;15.30;;;8.43;;
4074;SDS011;2052;53.522;9.806;2023-11-21T04:34:57;13.80;;;7.03;;
4074;SDS011;2052;53.522;9.806;2023-11-21T04:37:24;13.00;;;8.20;;
4074;SDS011;2052;53.522;9.806;2023-11-21T04:39:50;15.83;;;7.80;;
4074;SDS011;2052;53.522;9.806;2023-11-21T04:42:18;14.20;;;7.50;;
4074;SDS011;2052;53.522;9.806;2023-11-21T04:44:44;14.20;;;8.20;;
4074;SDS011;2052;53.522;9.806;2023-11-21T04:47:11;19.63;;;9.03;;
4074;SDS011;2052;53.522;9.806;2023-11-21T04:49:39;21.57;;;9.90;;
4074;SDS011;2052;53.522;9.806;2023-11-21T04:52:07;17.57;;;8.47;;
4074;SDS011;2052;53.522;9.806;2023-11-21T04:54:34;12.80;;;7.80;;
4074;SDS011;2052;53.522;9.806;2023-11-21T04:57:01;15.50;;;7.63;;
4074;SDS011;2052;53.522;9.806;2023-11-21T04:59:31;16.77;;;8.10;;
4074;SDS011;2052;53.522;9.806;2023-11-21T05:01:58;16.83;;;8.77;;
4074;SDS011;2052;53.522;9.806;2023-11-21T05:04:25;14.30;;;8.23;;
4074;SDS011;2052;53.522;9.806;2023-11-21T05:06:52;17.07;;;8.10;;
4074;SDS011;2052;53.522;9.806;2023-11-21T05:09:18;15.93;;;8.70;;
4074;SDS011;2052;53.522;9.806;2023-11-21T05:11:45;14.73;;;8.47;;
4074;SDS011;2052;53.522;9.806;2023-11-21T05:14:11;17.77;;;8.70;;
4074;SDS011;2052;53.522;9.806;2023-11-21T05:16:40;16.77;;;8.00;;
4074;SDS011;2052;53.522;9.806;2023-11-21T05:19:07;14.27;;;8.20;;
4074;SDS011;2052;53.522;9.806;2023-11-21T05:21:34;15.40;;;9.23;;
4074;SDS011;2052;53.522;9.806;2023-11-21T05:24:01;14.10;;;8.03;;
4074;SDS011;2052;53.522;9.806;2023-11-21T05:26:27;18.67;;;9.23;;
4074;SDS011;2052;53.522;9.806;2023-11-21T05:28:54;18.20;;;8.73;;
4074;SDS011;2052;53.522;9.806;2023-11-21T05:31:21;19.87;;;10.53;;
4074;SDS011;2052;53.522;9.806;2023-11-21T05:33:48;16.13;;;8.47;;
4074;SDS011;2052;53.522;9.806;2023-11-21T05:36:16;15.60;;;8.67;;
4074;SDS011;2052;53.522;9.806;2023-11-21T05:38:43;15.43;;;8.07;;
4074;SDS011;2052;53.522;9.806;2023-11-21T05:41:11;12.30;;;7.63;;
4074;SDS011;2052;53.522;9.806;2023-11-21T05:43:38;15.20;;;8.50;;
4074;SDS011;2052;53.522;9.806;2023-11-21T05:46:05;14.10;;;7.67;;
4074;SDS011;2052;53.522;9.806;2023-11-21T05:48:32;13.27;;;8.10;;
4074;SDS011;2052;53.522;9.806;2023-11-21T05:51:00;14.07;;;7.43;;
4074;SDS011;2052;53.522;9.806;2023-11-21T05:53:27;14.07;;;8.67;;
4074;SDS011;2052;53.522;9.806;2023-11-21T05:55:54;15.30;;;8.40;;
4074;SDS011;2052;53.522;9.806;2023-11-21T05:58:21;12.13;;;8.00;;
4074;SDS011;2052;53.522;9.806;2023-11-21T06:00:47;15.93;;;8.37;;
4074;SDS011;2052;53.522;9.806;2023-11-21T06:03:14;17.23;;;8.67;;
4074;SDS011;2052;53.522;9.806;2023-11-21T06:05:42;12.97;;;7.73;;
4074;SDS011;2052;53.522;9.806;2023-11-21T06:08:10;15.03;;;8.30;;
4074;SDS011;2052;53.522;9.806;2023-11-21T06:10:36;14.23;;;7.83;;
4074;SDS011;2052;53.522;9.806;2023-11-21T06:13:04;16.23;;;7.97;;
4074;SDS011;2052;53.522;9.806;2023-11-21T06:15:32;17.80;;;8.30;;
4074;SDS011;2052;53.522;9.806;2023-11-21T06:17:59;15.00;;;7.60;;
4074;SDS011;2052;53.522;9.806;2023-11-21T06:20:26;16.37;;;7.90;;
4074;SDS011;2052;53.522;9.806;2023-11-21T06:22:52;15.40;;;8.63;;
4074;SDS011;2052;53.522;9.806;2023-11-21T06:25:21;16.43;;;8.30;;
4074;SDS011;2052;53.522;9.806;2023-11-21T06:27:48;15.57;;;8.60;;
4074;SDS011;2052;53.522;9.806;2023-11-21T06:30:14;16.97;;;8.93;;
4074;SDS011;2052;53.522;9.806;2023-11-21T06:32:41;13.50;;;7.90;;
4074;SDS011;2052;53.522;9.806;2023-11-21T06:35:10;13.30;;;8.20;;
4074;SDS011;2052;53.522;9.806;2023-11-21T06:37:38;16.33;;;8.57;;
4074;SDS011;2052;53.522;9.806;2023-11-21T06:40:05;14.50;;;8.10;;
4074;SDS011;2052;53.522;9.806;2023-11-21T06:42:34;18.50;;;8.47;;
4074;SDS011;2052;53.522;9.806;2023-11-21T06:45:08;13.63;;;8.17;;
4074;SDS011;2052;53.522;9.806;2023-11-21T06:47:56;14.10;;;7.63;;
4074;SDS011;2052;53.522;9.806;2023-11-21T06:50:23;13.53;;;7.67;;
4074;SDS011;2052;53.522;9.806;2023-11-21T06:52:52;14.93;;;8.23;;
4074;SDS011;2052;53.522;9.806;2023-11-21T06:55:19;13.93;;;8.43;;
4074;SDS011;2052;53.522;9.806;2023-11-21T06:57:47;15.10;;;9.53;;
4074;SDS011;2052;53.522;9.806;2023-11-21T07:00:14;17.48;;;8.73;;
4074;SDS011;2052;53.522;9.806;2023-11-21T07:02:42;13.93;;;8.97;;
4074;SDS011;2052;53.522;9.806;2023-11-21T07:05:09;16.60;;;9.20;;
4074;SDS011;2052;53.522;9.806;2023-11-21T07:07:36;14.33;;;7.93;;
4074;SDS011;2052;53.522;9.806;2023-11-21T07:10:04;13.70;;;8.87;;
4074;SDS011;2052;53.522;9.806;2023-11-21T07:12:31;13.83;;;8.10;;
4074;SDS011;2052;53.522;9.806;2023-11-21T07:14:59;14.23;;;8.20;;
4074;SDS011;2052;53.522;9.806;2023-11-21T07:17:26;16.57;;;8.97;;
4074;SDS011;2052;53.522;9.806;2023-11-21T07:19:51;15.47;;;7.63;;
4074;SDS011;2052;53.522;9.806;2023-11-21T07:22:18;13.77;;;8.43;;
4074;SDS011;2052;53.522;9.806;2023-11-21T07:24:47;14.30;;;8.80;;
4074;SDS011;2052;53.522;9.806;2023-11-21T07:27:15;18.83;;;8.60;;
4074;SDS011;2052;53.522;9.806;2023-11-21T07:29:41;24.57;;;10.97;;
4074;SDS011;2052;53.522;9.806;2023-11-21T07:32:09;19.97;;;9.00;;
4074;SDS011;2052;53.522;9.806;2023-11-21T07:34:36;15.60;;;9.73;;
4074;SDS011;2052;53.522;9.806;2023-11-21T07:37:03;15.30;;;8.80;;
4074;SDS011;2052;53.522;9.806;2023-11-21T07:39:30;16.83;;;8.90;;
4074;SDS011;2052;53.522;9.806;2023-11-21T07:41:57;18.17;;;9.10;;
4074;SDS011;2052;53.522;9.806;2023-11-21T07:44:24;17.47;;;9.73;;
4074;SDS011;2052;53.522;9.806;2023-11-21T07:46:51;18.33;;;9.00;;
4074;SDS011;2052;53.522;9.806;2023-11-21T07:52:08;15.90;;;8.43;;
4074;SDS011;2052;53.522;9.806;2023-11-21T07:54:34;14.50;;;7.70;;
4074;SDS011;2052;53.522;9.806;2023-11-21T07:57:01;18.47;;;9.27;;
4074;SDS011;2052;53.522;9.806;2023-11-21T07:59:29;17.50;;;9.23;;
4074;SDS011;2052;53.522;9.806;2023-11-21T08:01:55;18.63;;;8.93;;
4074;SDS011;2052;53.522;9.806;2023-11-21T08:04:22;12.93;;;8.87;;
4074;SDS011;2052;53.522;9.806;2023-11-21T08:06:50;18.77;;;9.20;;
4074;SDS011;2052;53.522;9.806;2023-11-21T08:09:17;14.93;;;7.50;;
4074;SDS011;2052;53.522;9.806;2023-11-21T08:11:44;13.70;;;9.40;;
4074;SDS011;2052;53.522;9.806;2023-11-21T08:14:11;15.90;;;8.53;;
4074;SDS011;2052;53.522;9.806;2023-11-21T08:16:38;15.87;;;8.00;;
4074;SDS011;2052;53.522;9.806;2023-11-21T08:19:05;10.60;;;7.13;;
4074;SDS011;2052;53.522;9.806;2023-11-21T08:21:33;12.87;;;7.97;;
4074;SDS011;2052;53.522;9.806;2023-11-21T08:24:03;13.80;;;7.73;;
4074;SDS011;2052;53.522;9.806;2023-11-21T08:26:30;13.30;;;7.40;;
4074;SDS011;2052;53.522;9.806;2023-11-21T08:28:58;14.90;;;7.30;;
4074;SDS011;2052;53.522;9.806;2023-11-21T08:31:24;14.90;;;7.63;;
4074;SDS011;2052;53.522;9.806;2023-11-21T08:33:51;13.30;;;8.20;;
4074;SDS011;2052;53.522;9.806;2023-11-21T08:36:20;15.43;;;7.47;;
4074;SDS011;2052;53.522;9.806;2023-11-21T08:38:48;11.13;;;6.23;;
4074;SDS011;2052;53.522;9.806;2023-11-21T08:41:16;14.70;;;6.23;;
4074;SDS011;2052;53.522;9.806;2023-11-21T08:43:44;10.60;;;6.57;;
4074;SDS011;2052;53.522;9.806;2023-11-21T08:46:13;13.90;;;6.83;;
4074;SDS011;2052;53.522;9.806;2023-11-21T08:48:40;10.87;;;6.87;;
4074;SDS011;2052;53.522;9.806;2023-11-21T08:51:09;10.17;;;6.90;;
4074;SDS011;2052;53.522;9.806;2023-11-21T08:53:38;11.30;;;6.13;;
4074;SDS011;2052;53.522;9.806;2023-11-21T08:56:04;11.63;;;6.17;;
4074;SDS011;2052;53.522;9.806;2023-11-21T08:58:33;10.40;;;6.70;;
4074;SDS011;2052;53.522;9.806;2023-11-21T09:01:02;10.60;;;6.67;;
4074;SDS011;2052;53.522;9.806;2023-11-21T09:03:29;9.93;;;5.83;;
4074;SDS011;2052;53.522;9.806;2023-11-21T09:05:57;8.07;;;5.20;;
4074;SDS011;2052;53.522;9.806;2023-11-21T09:08:23;9.83;;;6.20;;
4074;SDS011;2052;53.522;9.806;2023-11-21T09:10:50;11.50;;;5.80;;
4074;SDS011;2052;53.522;9.806;2023-11-21T09:13:17;7.33;;;5.70;;
4074;SDS011;2052;53.522;9.806;2023-11-21T09:15:45;7.90;;;6.03;;
4074;SDS011;2052;53.522;9.806;2023-11-21T09:18:14;8.00;;;5.50;;
4074;SDS011;2052;53.522;9.806;2023-11-21T09:20:42;9.37;;;6.33;;
4074;SDS011;2052;53.522;9.806;2023-11-21T09:23:09;11.00;;;5.57;;
4074;SDS011;2052;53.522;9.806;2023-11-21T09:25:35;10.10;;;7.53;;
4074;SDS011;2052;53.522;9.806;2023-11-21T09:28:03;10.67;;;6.20;;
4074;SDS011;2052;53.522;9.806;2023-11-21T09:30:33;12.60;;;7.27;;
4074;SDS011;2052;53.522;9.806;2023-11-21T09:33:01;8.53;;;5.97;;
4074;SDS011;2052;53.522;9.806;2023-11-21T09:35:28;10.57;;;6.37;;
4074;SDS011;2052;53.522;9.806;2023-11-21T09:37:54;9.40;;;6.70;;
4074;SDS011;2052;53.522;9.806;2023-11-21T09:40:21;12.10;;;7.10;;
4074;SDS011;2052;53.522;9.806;2023-11-21T09:42:49;12.10;;;6.33;;
4074;SDS011;2052;53.522;9.806;2023-11-21T09:45:24;12.43;;;6.40;;
4074;SDS011;2052;53.522;9.806;2023-11-21T09:47:52;10.83;;;5.73;;
4074;SDS011;2052;53.522;9.806;2023-11-21T09:50:20;9.60;;;6.13;;
4074;SDS011;2052;53.522;9.806;2023-11-21T09:52:49;9.33;;;5.20;;
4074;SDS011;2052;53.522;9.806;2023-11-21T09:55:32;8.47;;;4.60;;
4074;SDS011;2052;53.522;9.806;2023-11-21T09:58:02;6.70;;;4.60;;
4074;SDS011;2052;53.522;9.806;2023-11-21T10:00:30;10.10;;;4.90;;
4074;SDS011;2052;53.522;9.806;2023-11-21T10:03:00;6.27;;;4.30;;
4074;SDS011;2052;53.522;9.806;2023-11-21T10:05:29;7.07;;;4.40;;
4074;SDS011;2052;53.522;9.806;2023-11-21T10:07:59;4.90;;;3.60;;
4074;SDS011;2052;53.522;9.806;2023-11-21T10:10:27;7.50;;;3.83;;
4074;SDS011;2052;53.522;9.806;2023-11-21T10:12:55;5.23;;;3.13;;
4074;SDS011;2052;53.522;9.806;2023-11-21T10:15:23;5.77;;;3.93;;
4074;SDS011;2052;53.522;9.806;2023-11-21T10:17:50;7.20;;;4.20;;
4074;SDS011;2052;53.522;9.806;2023-11-21T10:20:19;6.77;;;3.90;;
4074;SDS011;2052;53.522;9.806;2023-11-21T10:22:46;5.77;;;3.43;;
4074;SDS011;2052;53.522;9.806;2023-11-21T10:25:13;6.30;;;4.00;;
4074;SDS011;2052;53.522;9.806;2023-11-21T10:27:40;4.93;;;3.60;;
4074;SDS011;2052;53.522;9.806;2023-11-21T10:30:08;7.00;;;4.10;;
4074;SDS011;2052;53.522;9.806;2023-11-21T10:32:37;6.43;;;3.40;;
4074;SDS011;2052;53.522;9.806;2023-11-21T10:35:05;5.67;;;4.00;;
4074;SDS011;2052;53.522;9.806;2023-11-21T10:37:35;4.07;;;3.67;;
4074;SDS011;2052;53.522;9.806;2023-11-21T10:40:06;5.33;;;4.03;;
4074;SDS011;2052;53.522;9.806;2023-11-21T10:42:36;4.30;;;3.60;;
4074;SDS011;2052;53.522;9.806;2023-11-21T10:45:04;6.53;;;4.00;;
4074;SDS011;2052;53.522;9.806;2023-11-21T10:47:37;5.10;;;3.87;;
4074;SDS011;2052;53.522;9.806;2023-11-21T10:50:04;7.50;;;3.43;;
4074;SDS011;2052;53.522;9.806;2023-11-21T10:52:34;5.53;;;3.43;;
4074;SDS011;2052;53.522;9.806;2023-11-21T10:55:01;5.10;;;3.50;;
4074;SDS011;2052;53.522;9.806;2023-11-21T10:57:30;3.83;;;2.90;;
4074;SDS011;2052;53.522;9.806;2023-11-21T10:59:57;5.47;;;3.40;;
4074;SDS011;2052;53.522;9.806;2023-11-21T11:02:24;4.90;;;3.70;;
4074;SDS011;2052;53.522;9.806;2023-11-21T11:04:53;8.80;;;3.97;;
4074;SDS011;2052;53.522;9.806;2023-11-21T11:07:20;4.80;;;3.30;;
4074;SDS011;2052;53.522;9.806;2023-11-21T11:09:48;7.37;;;3.80;;
4074;SDS011;2052;53.522;9.806;2023-11-21T11:12:15;4.33;;;3.33;;
4074;SDS011;2052;53.522;9.806;2023-11-21T11:14:44;7.53;;;4.50;;
4074;SDS011;2052;53.522;9.806;2023-11-21T11:17:10;5.43;;;4.10;;
4074;SDS011;2052;53.522;9.806;2023-11-21T11:19:37;5.10;;;3.97;;
4074;SDS011;2052;53.522;9.806;2023-11-21T11:22:07;3.93;;;3.17;;
4074;SDS011;2052;53.522;9.806;2023-11-21T11:25:03;4.17;;;3.30;;
4074;SDS011;2052;53.522;9.806;2023-11-21T11:27:40;3.70;;;3.30;;
4074;SDS011;2052;53.522;9.806;2023-11-21T11:30:16;8.13;;;3.13;;
4074;SDS011;2052;53.522;9.806;2023-11-21T11:32:57;4.40;;;3.30;;
4074;SDS011;2052;53.522;9.806;2023-11-21T11:35:26;5.43;;;3.70;;
4074;SDS011;2052;53.522;9.806;2023-11-21T11:37:59;5.40;;;3.60;;
4074;SDS011;2052;53.522;9.806;2023-11-21T11:40:25;4.97;;;3.30;;
4074;SDS011;2052;53.522;9.806;2023-11-21T11:43:05;4.00;;;3.50;;
4074;SDS011;2052;53.522;9.806;2023-11-21T11:45:34;4.17;;;3.63;;
4074;SDS011;2052;53.522;9.806;2023-11-21T11:48:06;5.10;;;4.10;;
4074;SDS011;2052;53.522;9.806;2023-11-21T11:50:33;5.50;;;4.00;;
4074;SDS011;2052;53.522;9.806;2023-11-21T11:53:11;4.93;;;3.87;;
4074;SDS011;2052;53.522;9.806;2023-11-21T11:55:39;7.10;;;3.90;;
4074;SDS011;2052;53.522;9.806;2023-11-21T11:58:06;4.93;;;3.30;;
4074;SDS011;2052;53.522;9.806;2023-11-21T12:00:35;5.53;;;3.33;;
4074;SDS011;2052;53.522;9.806;2023-11-21T12:03:05;5.50;;;3.60;;
4074;SDS011;2052;53.522;9.806;2023-11-21T12:05:33;5.93;;;4.00;;
4074;SDS011;2052;53.522;9.806;2023-11-21T12:08:04;5.60;;;3.80;;
4074;SDS011;2052;53.522;9.806;2023-11-21T12:10:32;5.07;;;3.40;;
4074;SDS011;2052;53.522;9.806;2023-11-21T12:13:00;5.67;;;3.70;;
4074;SDS011;2052;53.522;9.806;2023-11-21T12:15:27;4.60;;;3.00;;
4074;SDS011;2052;53.522;9.806;2023-11-21T12:17:57;3.63;;;2.63;;
4074;SDS011;2052;53.522;9.806;2023-11-21T12:20:26;6.30;;;3.30;;
4074;SDS011;2052;53.522;9.806;2023-11-21T12:22:54;6.00;;;3.90;;
4074;SDS011;2052;53.522;9.806;2023-11-21T12:25:21;4.37;;;3.27;;
4074;SDS011;2052;53.522;9.806;2023-11-21T12:27:48;6.23;;;3.53;;
4074;SDS011;2052;53.522;9.806;2023-11-21T12:30:17;6.27;;;3.40;;
4074;SDS011;2052;53.522;9.806;2023-11-21T12:32:44;4.20;;;3.23;;
4074;SDS011;2052;53.522;9.806;2023-11-21T12:35:15;6.20;;;4.00;;
4074;SDS011;2052;53.522;9.806;2023-11-21T12:37:44;6.43;;;3.27;;
4074;SDS011;2052;53.522;9.806;2023-11-21T12:40:12;8.43;;;3.87;;
4074;SDS011;2052;53.522;9.806;2023-11-21T12:42:40;3.33;;;3.03;;
4074;SDS011;2052;53.522;9.806;2023-11-21T12:45:18;4.80;;;3.30;;
4074;SDS011;2052;53.522;9.806;2023-11-21T12:47:46;7.20;;;3.50;;
4074;SDS011;2052;53.522;9.806;2023-11-21T12:50:14;5.13;;;3.43;;
4074;SDS011;2052;53.522;9.806;2023-11-21T12:52:42;6.53;;;3.93;;
4074;SDS011;2052;53.522;9.806;2023-11-21T12:55:13;5.47;;;3.90;;
4074;SDS011;2052;53.522;9.806;2023-11-21T12:57:44;5.83;;;4.30;;
4074;SDS011;2052;53.522;9.806;2023-11-21T13:00:12;4.30;;;3.60;;
4074;SDS011;2052;53.522;9.806;2023-11-21T13:02:51;6.73;;;4.40;;
4074;SDS011;2052;53.522;9.806;2023-11-21T13:05:24;5.37;;;4.30;;
4074;SDS011;2052;53.522;9.806;2023-11-21T13:07:55;5.33;;;4.00;;
4074;SDS011;2052;53.522;9.806;2023-11-21T13:10:23;5.60;;;4.10;;
4074;SDS011;2052;53.522;9.806;2023-11-21T13:12:54;5.87;;;4.03;;
4074;SDS011;2052;53.522;9.806;2023-11-21T13:15:23;6.77;;;4.30;;
4074;SDS011;2052;53.522;9.806;2023-11-21T13:17:50;6.27;;;4.23;;
4074;SDS011;2052;53.522;9.806;2023-11-21T13:20:18;4.97;;;3.77;;
4074;SDS011;2052;53.522;9.806;2023-11-21T13:22:48;5.30;;;3.67;;
4074;SDS011;2052;53.522;9.806;2023-11-21T13:25:19;7.80;;;3.70;;
4074;SDS011;2052;53.522;9.806;2023-11-21T13:27:46;5.90;;;4.20;;
4074;SDS011;2052;53.522;9.806;2023-11-21T13:30:13;5.07;;;3.60;;
4074;SDS011;2052;53.522;9.806;2023-11-21T13:32:48;3.80;;;3.17;;
4074;SDS011;2052;53.522;9.806;2023-11-21T13:35:16;6.00;;;3.43;;
4074;SDS011;2052;53.522;9.806;2023-11-21T13:37:48;4.43;;;3.50;;
4074;SDS011;2052;53.522;9.806;2023-11-21T13:40:19;6.50;;;3.77;;
4074;SDS011;2052;53.522;9.806;2023-11-21T13:42:50;12.10;;;4.10;;
4074;SDS011;2052;53.522;9.806;2023-11-21T13:45:19;4.80;;;3.80;;
4074;SDS011;2052;53.522;9.806;2023-11-21T13:47:48;5.30;;;4.10;;
4074;SDS011;2052;53.522;9.806;2023-11-21T13:50:17;5.90;;;4.40;;
4074;SDS011;2052;53.522;9.806;2023-11-21T13:52:49;4.47;;;3.53;;
4074;SDS011;2052;53.522;9.806;2023-11-21T13:55:18;4.33;;;3.40;;
4074;SDS011;2052;53.522;9.806;2023-11-21T13:57:45;4.20;;;3.10;;
4074;SDS011;2052;53.522;9.806;2023-11-21T14:00:15;5.33;;;4.00;;
4074;SDS011;2052;53.522;9.806;2023-11-21T14:03:06;4.87;;;3.47;;
4074;SDS011;2052;53.522;9.806;2023-11-21T14:05:41;6.03;;;3.73;;
4074;SDS011;2052;53.522;9.806;2023-11-21T14:08:09;6.97;;;4.40;;
4074;SDS011;2052;53.522;9.806;2023-11-21T14:10:41;9.53;;;4.17;;
4074;SDS011;2052;53.522;9.806;2023-11-21T14:13:09;5.87;;;3.97;;
4074;SDS011;2052;53.522;9.806;2023-11-21T14:15:38;7.57;;;4.13;;
4074;SDS011;2052;53.522;9.806;2023-11-21T14:18:08;4.57;;;3.57;;
4074;SDS011;2052;53.522;9.806;2023-11-21T14:20:36;7.97;;;4.97;;
4074;SDS011;2052;53.522;9.806;2023-11-21T14:23:03;5.43;;;3.80;;
4074;SDS011;2052;53.522;9.806;2023-11-21T14:25:32;5.03;;;4.13;;
4074;SDS011;2052;53.522;9.806;2023-11-21T14:28:02;5.37;;;4.10;;
4074;SDS011;2052;53.522;9.806;2023-11-21T14:30:31;8.63;;;5.53;;
4074;SDS011;2052;53.522;9.806;2023-11-21T14:33:00;5.47;;;4.13;;
4074;SDS011;2052;53.522;9.806;2023-11-21T14:35:28;3.80;;;3.50;;
4074;SDS011;2052;53.522;9.806;2023-11-21T14:37:57;5.77;;;3.73;;
4074;SDS011;2052;53.522;9.806;2023-11-21T14:40:24;5.67;;;3.90;;
4074;SDS011;2052;53.522;9.806;2023-11-21T14:42:53;7.83;;;4.00;;
4074;SDS011;2052;53.522;9.806;2023-11-21T14:45:22;6.80;;;4.07;;
4074;SDS011;2052;53.522;9.806;2023-11-21T14:47:51;5.23;;;3.80;;
4074;SDS011;2052;53.522;9.806;2023-11-21T14:50:27;5.13;;;4.10;;
4074;SDS011;2052;53.522;9.806;2023-11-21T14:53:17;5.17;;;4.27;;
4074;SDS011;2052;53.522;9.806;2023-11-21T14:56:03;5.10;;;3.77;;
4074;SDS011;2052;53.522;9.806;2023-11-21T14:58:31;5.53;;;3.90;;
4074;SDS011;2052;53.522;9.806;2023-11-21T15:00:57;5.43;;;3.23;;
4074;SDS011;2052;53.522;9.806;2023-11-21T15:03:25;5.70;;;3.20;;
4074;SDS011;2052;53.522;9.806;2023-11-21T15:06:08;5.33;;;3.30;;
4074;SDS011;2052;53.522;9.806;2023-11-21T15:08:48;6.90;;;3.47;;
4074;SDS011;2052;53.522;9.806;2023-11-21T15:11:18;3.73;;;3.00;;
4074;SDS011;2052;53.522;9.806;2023-11-21T15:13:51;6.60;;;2.73;;